Time;durP1;ratioP1;P1;durP2;ratioP2;P2;SDS_P1;SDS_P2;PMS_P1;PMS_P2;Temp;Humidity;BMP_temperature;BMP_pressure;BME280_temperature;BME280_humidity;BME280_pressure;Samples;Min_cycle;Max_cycle;Signal;HPM_P1;HPM_P2
2023/06/28 00:01:03;;;;;;;22.60;8.48;;;;;;;14.66;100.00;101742.84;5031740;28;20347;-46
2023/06/28 00:03:29;;;;;;;23.00;7.85;;;;;;;14.59;100.00;101740.88;5031822;28;20108;-44
2023/06/28 00:05:54;;;;;;;23.63;7.20;;;;;;;14.67;100.00;101747.19;5031670;28;20079;-48
2023/06/28 00:08:19;;;;;;;24.13;7.45;;;;;;;14.61;100.00;101740.06;5031881;28;20013;-46
2023/06/28 00:10:45;;;;;;;22.48;6.70;;;;;;;14.58;100.00;101741.72;5034871;28;20025;-46
2023/06/28 00:13:10;;;;;;;21.88;6.53;;;;;;;14.57;100.00;101742.56;5035166;28;20032;-46
2023/06/28 00:15:36;;;;;;;18.48;6.97;;;;;;;14.61;100.00;101741.81;5050148;28;20328;-44
2023/06/28 00:18:02;;;;;;;23.63;6.95;;;;;;;14.56;100.00;101733.00;5055726;28;20025;-45
2023/06/28 00:20:28;;;;;;;23.20;6.43;;;;;;;14.47;100.00;101737.13;5054824;28;20025;-44
2023/06/28 00:22:54;;;;;;;18.65;5.70;;;;;;;14.46;100.00;101740.53;5055229;28;20076;-47
2023/06/28 00:25:20;;;;;;;20.13;6.10;;;;;;;14.42;100.00;101740.41;5055289;28;20159;-47
2023/06/28 00:27:46;;;;;;;12.90;5.63;;;;;;;14.43;100.00;101739.56;5054681;28;20045;-47
2023/06/28 00:30:12;;;;;;;16.30;5.80;;;;;;;14.40;100.00;101740.38;5055319;28;20086;-47
2023/06/28 00:32:38;;;;;;;15.75;6.50;;;;;;;14.44;100.00;101746.53;5055159;28;20075;-47
2023/06/28 00:35:05;;;;;;;26.70;7.25;;;;;;;14.44;100.00;101747.38;5054560;28;20025;-48
2023/06/28 00:37:31;;;;;;;26.13;8.27;;;;;;;14.46;100.00;101750.91;5054806;28;20036;-44
2023/06/28 00:39:56;;;;;;;22.83;7.80;;;;;;;14.51;100.00;101748.44;5055132;28;20025;-48
2023/06/28 00:42:21;;;;;;;22.67;8.07;;;;;;;14.53;100.00;101745.91;5054728;28;20368;-47
2023/06/28 00:44:47;;;;;;;20.15;7.95;;;;;;;14.56;100.00;101748.56;5054731;28;20520;-45
2023/06/28 00:47:13;;;;;;;23.05;8.40;;;;;;;14.60;100.00;101748.72;5055066;28;20040;-48
2023/06/28 00:49:39;;;;;;;17.60;8.02;;;;;;;14.63;100.00;101746.19;5054144;28;20392;-46
2023/06/28 00:52:06;;;;;;;16.42;8.18;;;;;;;14.70;100.00;101749.84;5054753;28;20029;-46
2023/06/28 00:54:31;;;;;;;22.70;8.00;;;;;;;14.66;100.00;101742.84;5054433;28;20366;-43
2023/06/28 00:56:58;;;;;;;20.13;8.48;;;;;;;14.68;100.00;101741.19;5054475;28;20033;-46
2023/06/28 00:59:23;;;;;;;19.40;8.30;;;;;;;14.74;100.00;101751.69;5054353;28;20029;-44
2023/06/28 01:01:49;;;;;;;16.50;7.93;;;;;;;14.70;100.00;101749.84;5054933;28;20075;-45
2023/06/28 01:04:15;;;;;;;18.60;8.10;;;;;;;14.71;100.00;101751.63;5054088;28;20017;-48
2023/06/28 01:06:43;;;;;;;15.80;7.43;;;;;;;14.70;100.00;101744.66;5054076;28;20029;-46
2023/06/28 01:09:11;;;;;;;17.63;7.50;;;;;;;14.75;100.00;101748.25;5053924;28;20357;-46
2023/06/28 01:11:37;;;;;;;16.52;7.50;;;;;;;14.77;100.00;101746.59;5054008;28;20370;-45
2023/06/28 01:14:04;;;;;;;15.35;6.88;;;;;;;14.74;100.00;101746.50;5054709;28;20021;-46
2023/06/28 01:16:30;;;;;;;22.53;7.90;;;;;;;14.75;100.00;101745.69;5053716;28;20087;-43
2023/06/28 01:18:55;;;;;;;16.23;7.20;;;;;;;14.72;100.00;101745.59;5054267;28;20025;-46
2023/06/28 01:21:25;;;;;;;14.40;6.38;;;;;;;14.72;100.00;101747.28;5053038;28;20515;-46
2023/06/28 01:23:50;;;;;;;13.30;6.38;;;;;;;14.70;100.00;101738.63;5053990;28;20033;-47
2023/06/28 01:26:16;;;;;;;16.25;6.22;;;;;;;14.71;100.00;101740.38;5053989;28;20028;-45
2023/06/28 01:28:44;;;;;;;13.43;5.65;;;;;;;14.78;100.00;101742.28;5053917;28;20163;-46
2023/06/28 01:31:11;;;;;;;12.68;5.72;;;;;;;14.72;100.00;101737.81;5053785;28;20032;-43
2023/06/28 01:33:37;;;;;;;13.15;5.53;;;;;;;14.72;100.00;101732.63;5053722;28;20032;-45
2023/06/28 01:36:03;;;;;;;16.27;5.95;;;;;;;14.71;100.00;101735.19;5054041;28;20108;-47
2023/06/28 01:38:30;;;;;;;15.93;6.15;;;;;;;14.64;100.00;101732.41;5053140;28;20033;-46
2023/06/28 01:40:56;;;;;;;14.85;6.07;;;;;;;14.63;100.00;101734.94;5053819;28;20472;-45
2023/06/28 01:43:22;;;;;;;13.85;5.63;;;;;;;14.58;100.00;101733.94;5054065;28;20039;-45
2023/06/28 01:45:49;;;;;;;13.95;5.90;;;;;;;14.54;100.00;101734.66;5053251;28;20057;-43
2023/06/28 01:48:15;;;;;;;;;;;;;;;14.65;100.00;101735.88;5054071;28;20025;-46
2023/06/28 01:50:40;;;;;;;10.90;5.10;;;;;;;14.58;100.00;101734.81;5053391;28;19936;-46
2023/06/28 01:53:07;;;;;;;11.95;5.63;;;;;;;14.56;100.00;101735.59;5053208;28;20036;-48
2023/06/28 01:55:32;;;;;;;11.70;5.53;;;;;;;14.55;100.00;101728.66;5053298;28;20051;-45
2023/06/28 01:57:57;;;;;;;11.00;5.68;;;;;;;14.48;100.00;101733.66;5053770;28;20445;-45
2023/06/28 02:00:23;;;;;;;14.95;6.40;;;;;;;14.47;100.00;101731.94;5052856;28;20021;-46
2023/06/28 02:02:50;;;;;;;14.50;6.82;;;;;;;14.51;100.00;101732.00;5053384;28;20017;-48
2023/06/28 02:05:15;;;;;;;11.40;6.00;;;;;;;14.51;100.00;101725.09;5053491;28;20029;-45
2023/06/28 02:07:41;;;;;;;14.45;6.05;;;;;;;14.51;100.00;101726.81;5052669;28;20036;-45
2023/06/28 02:10:06;;;;;;;14.25;6.10;;;;;;;14.50;100.00;101723.34;5053417;28;20457;-47
2023/06/28 02:12:32;;;;;;;14.35;6.40;;;;;;;14.52;100.00;101728.59;5052867;28;20116;-45
2023/06/28 02:14:57;;;;;;;15.98;6.10;;;;;;;14.53;100.00;101730.34;5053198;28;20032;-44
2023/06/28 02:17:22;;;;;;;9.57;5.10;;;;;;;14.53;100.00;101726.03;5053233;28;20120;-43
2023/06/28 02:19:48;;;;;;;12.23;4.80;;;;;;;14.46;100.00;101724.97;5052725;28;20032;-45
2023/06/28 02:22:17;;;;;;;10.27;4.60;;;;;;;14.41;100.00;101718.78;5052817;28;20069;-47
2023/06/28 02:24:43;;;;;;;9.40;4.75;;;;;;;14.44;100.00;101720.59;5053100;28;20028;-44
2023/06/28 02:27:09;;;;;;;14.90;5.15;;;;;;;14.44;100.00;101716.28;5052779;28;20036;-46
2023/06/28 02:29:34;;;;;;;10.40;5.38;;;;;;;14.44;100.00;101715.41;5052591;28;20077;-47
2023/06/28 02:32:00;;;;;;;9.15;4.60;;;;;;;14.42;100.00;101714.47;5052894;28;20056;-47
2023/06/28 02:34:25;;;;;;;11.75;5.25;;;;;;;14.51;100.00;101709.53;5052308;28;20070;-47
2023/06/28 02:36:51;;;;;;;10.25;5.60;;;;;;;14.47;100.00;101711.19;5052875;28;20025;-47
2023/06/28 02:39:16;;;;;;;10.40;5.20;;;;;;;14.40;100.00;101706.66;5053206;28;20025;-47
2023/06/28 02:41:41;;;;;;;11.82;5.45;;;;;;;14.38;100.00;101705.72;5052387;28;20932;-46
2023/06/28 02:44:07;;;;;;;14.43;6.15;;;;;;;14.36;100.00;101712.59;5052898;28;20516;-46
2023/06/28 02:46:32;;;;;;;10.25;5.97;;;;;;;14.38;100.00;101712.63;5052654;28;20036;-48
2023/06/28 02:48:57;;;;;;;14.55;5.72;;;;;;;14.37;100.00;101714.38;5052280;28;20047;-45
2023/06/28 02:51:23;;;;;;;13.05;5.38;;;;;;;14.35;100.00;101708.25;5052228;28;20031;-44
2023/06/28 02:53:48;;;;;;;13.10;6.03;;;;;;;14.35;100.00;101710.84;5052700;28;20028;-45
2023/06/28 02:56:15;;;;;;;12.43;5.60;;;;;;;14.37;100.00;101709.16;5052314;28;20124;-46
2023/06/28 02:58:41;;;;;;;14.10;5.75;;;;;;;14.32;100.00;101710.75;5052323;28;20096;-46
2023/06/28 03:01:07;;;;;;;12.85;5.68;;;;;;;14.36;100.00;101702.22;5052765;28;20526;-45
2023/06/28 03:03:34;;;;;;;10.18;5.30;;;;;;;14.30;100.00;101705.50;5051771;28;20024;-47
2023/06/28 03:05:59;;;;;;;9.90;5.55;;;;;;;14.40;100.00;101713.56;5052357;28;20032;-44
2023/06/28 03:08:25;;;;;;;13.13;5.22;;;;;;;14.37;100.00;101704.00;5052517;28;20025;-48
2023/06/28 03:10:50;;;;;;;10.77;5.35;;;;;;;14.43;100.00;101709.31;5052051;28;20075;-46
2023/06/28 03:13:15;;;;;;;13.07;5.35;;;;;;;14.37;100.00;101709.16;5052449;28;20021;-47
2023/06/28 03:15:41;;;;;;;11.40;5.35;;;;;;;14.35;100.00;101703.06;5051618;28;20043;-48
2023/06/28 03:18:06;;;;;;;13.55;6.03;;;;;;;14.34;100.00;101709.06;5052138;28;20033;-45
2023/06/28 03:20:32;;;;;;;12.82;5.55;;;;;;;14.39;100.00;101704.88;5051896;28;20521;-45
2023/06/28 03:22:57;;;;;;;11.05;5.65;;;;;;;14.34;100.00;101703.88;5051834;28;20031;-48
2023/06/28 03:25:23;;;;;;;12.02;6.20;;;;;;;14.40;100.00;101695.41;5051984;28;20176;-46
2023/06/28 03:27:49;;;;;;;13.70;6.25;;;;;;;14.40;100.00;101698.88;5052440;28;20029;-44
2023/06/28 03:30:14;;;;;;;13.88;6.63;;;;;;;14.38;100.00;101704.84;5052011;28;20032;-45
2023/06/28 03:32:40;;;;;;;12.68;6.28;;;;;;;14.35;100.00;101699.59;5051681;28;20099;-45
2023/06/28 03:35:06;;;;;;;11.15;5.60;;;;;;;14.28;100.00;101693.34;5052549;28;20051;-43
2023/06/28 03:37:31;;;;;;;12.27;5.30;;;;;;;14.28;100.00;101698.53;5051616;28;20025;-47
2023/06/28 03:39:56;;;;;;;11.30;5.43;;;;;;;14.22;100.00;101699.25;5052174;28;20408;-45
2023/06/28 03:42:22;;;;;;;11.25;5.57;;;;;;;14.15;100.00;101698.19;5052291;28;20092;-46
2023/06/28 03:44:48;;;;;;;12.60;5.22;;;;;;;14.13;100.00;101688.63;5053279;28;20056;-47
2023/06/28 03:47:13;;;;;;;11.68;5.35;;;;;;;14.11;100.00;101691.16;5055885;28;20535;-47
2023/06/28 03:49:40;;;;;;;14.50;6.32;;;;;;;14.12;100.00;101692.03;5055826;28;20036;-48
2023/06/28 03:52:05;;;;;;;12.15;6.15;;;;;;;14.09;100.00;101698.00;5055647;28;20055;-47
2023/06/28 03:54:30;;;;;;;12.85;5.40;;;;;;;14.05;100.00;101696.16;5055548;28;20446;-46
2023/06/28 03:56:56;;;;;;;14.27;5.72;;;;;;;14.08;100.00;101695.38;5056084;28;20459;-48
2023/06/28 03:59:21;;;;;;;13.98;6.05;;;;;;;14.02;100.00;101690.91;5055208;28;20021;-47
2023/06/28 04:01:46;;;;;;;13.60;6.00;;;;;;;14.00;100.00;101692.56;5055408;28;20109;-46
2023/06/28 04:04:11;;;;;;;11.35;5.60;;;;;;;14.03;100.00;101692.66;5055729;28;20377;-46
2023/06/28 04:06:37;;;;;;;11.18;5.63;;;;;;;14.02;100.00;101696.09;5055033;28;20025;-46
2023/06/28 04:09:03;;;;;;;12.20;5.90;;;;;;;14.02;100.00;101690.91;5055718;28;20025;-47
2023/06/28 04:11:29;;;;;;;10.88;6.50;;;;;;;14.05;100.00;101691.00;5055385;28;20021;-46
2023/06/28 04:13:54;;;;;;;10.32;5.93;;;;;;;14.04;100.00;101688.34;5055047;28;20039;-47
2023/06/28 04:16:19;;;;;;;13.85;6.47;;;;;;;14.05;100.00;101684.94;5055737;28;20025;-46
2023/06/28 04:18:45;;;;;;;11.40;6.05;;;;;;;14.01;100.00;101681.38;5055288;28;20092;-46
2023/06/28 04:21:10;;;;;;;11.85;5.93;;;;;;;14.02;100.00;101684.81;5054756;28;20374;-47
2023/06/28 04:23:35;;;;;;;10.50;5.82;;;;;;;14.06;100.00;101677.19;5055298;28;20476;-44
2023/06/28 04:26:00;;;;;;;14.52;6.13;;;;;;;14.04;100.00;101678.84;5055048;28;20558;-47
2023/06/28 04:28:26;;;;;;;12.48;6.28;;;;;;;14.12;100.00;101690.31;5054942;28;20021;-46
2023/06/28 04:30:51;;;;;;;12.40;6.53;;;;;;;14.10;100.00;101684.22;5055591;28;20029;-45
2023/06/28 04:33:18;;;;;;;14.32;6.38;;;;;;;14.05;100.00;101690.13;5054713;28;20029;-48
2023/06/28 04:35:46;;;;;;;13.90;6.95;;;;;;;14.12;100.00;101687.72;5054848;28;20048;-45
2023/06/28 04:38:13;;;;;;;13.95;6.85;;;;;;;14.12;100.00;101685.13;5055100;28;20469;-44
2023/06/28 04:40:39;;;;;;;12.10;6.18;;;;;;;14.17;100.00;101687.84;5054385;28;20029;-47
2023/06/28 04:43:09;;;;;;;13.32;6.40;;;;;;;14.19;100.00;101687.91;5054857;28;20511;-45
2023/06/28 04:45:38;;;;;;;14.60;6.28;;;;;;;14.21;100.00;101688.81;5055069;28;20037;-43
2023/06/28 04:48:05;;;;;;;14.75;7.63;;;;;;;14.20;100.00;101694.84;5054747;28;20053;-47
2023/06/28 04:50:32;;;;;;;13.07;6.82;;;;;;;14.22;100.00;101693.19;5054736;28;20033;-46
2023/06/28 04:52:57;;;;;;;11.90;6.90;;;;;;;14.23;100.00;101697.50;5055051;28;20033;-42
2023/06/28 04:55:22;;;;;;;14.18;6.88;;;;;;;14.25;100.00;101693.25;5053943;28;20461;-43
2023/06/28 04:57:48;;;;;;;11.40;6.68;;;;;;;14.25;100.00;101695.84;5054680;28;20111;-42
2023/06/28 05:00:14;;;;;;;11.38;6.53;;;;;;;14.24;100.00;101696.69;5054802;28;20100;-43
2023/06/28 05:02:39;;;;;;;13.85;7.10;;;;;;;14.24;100.00;101701.88;5054191;28;20024;-42
2023/06/28 05:05:05;;;;;;;14.02;6.70;;;;;;;14.26;100.00;101702.81;5054533;28;20112;-46
2023/06/28 05:07:30;;;;;;;15.45;6.75;;;;;;;14.31;100.00;101696.03;5054484;28;20053;-43
2023/06/28 05:09:55;;;;;;;11.52;7.07;;;;;;;14.30;100.00;101692.53;5054015;28;20040;-42
2023/06/28 05:12:21;;;;;;;12.73;6.65;;;;;;;14.30;100.00;101686.50;5054365;28;20047;-43
2023/06/28 05:14:46;;;;;;;14.73;6.85;;;;;;;14.30;100.00;101682.16;5054398;28;20120;-45
2023/06/28 05:17:11;;;;;;;19.17;7.55;;;;;;;14.36;100.00;101685.75;5053737;28;20108;-42
2023/06/28 05:19:36;;;;;;;14.48;8.00;;;;;;;14.44;100.00;101690.34;5054051;28;20108;-47
2023/06/28 05:22:02;;;;;;;15.73;7.82;;;;;;;14.42;100.00;101692.03;5054244;28;20052;-42
2023/06/28 05:24:28;;;;;;;20.63;8.63;;;;;;;14.45;100.00;101684.31;5053368;28;20031;-43
2023/06/28 05:26:53;;;;;;;17.00;8.90;;;;;;;14.49;100.00;101688.75;5054423;28;20028;-44
2023/06/28 05:29:19;;;;;;;15.20;9.50;;;;;;;14.50;100.00;101684.44;5053697;28;20021;-44
2023/06/28 05:31:45;;;;;;;21.92;8.52;;;;;;;14.55;100.00;101684.56;5053691;28;20433;-41
2023/06/28 05:34:11;;;;;;;17.98;8.50;;;;;;;14.54;100.00;101686.28;5054337;28;20414;-42
2023/06/28 05:36:36;;;;;;;17.77;9.35;;;;;;;14.54;100.00;101685.38;5053455;28;20029;-42
2023/06/28 05:39:02;;;;;;;16.42;9.02;;;;;;;14.56;100.00;101686.31;5053798;28;20021;-43
2023/06/28 05:41:28;;;;;;;13.48;8.30;;;;;;;14.60;100.00;101689.03;5053781;28;20048;-43
2023/06/28 05:43:54;;;;;;;16.52;8.30;;;;;;;14.60;100.00;101685.56;5053490;28;20075;-42
2023/06/28 05:46:19;;;;;;;17.42;8.98;;;;;;;14.62;100.00;101689.09;5053873;28;20045;-42
2023/06/28 05:48:46;;;;;;;15.98;9.48;;;;;;;14.67;100.00;101687.53;5053671;28;20057;-41
2023/06/28 05:51:12;;;;;;;15.40;9.77;;;;;;;14.67;100.00;101687.53;5053532;28;20422;-45
2023/06/28 05:53:38;;;;;;;16.67;9.35;;;;;;;14.68;100.00;101678.91;5053471;28;20079;-42
2023/06/28 05:56:04;;;;;;;17.67;9.57;;;;;;;14.77;100.00;101684.31;5053862;28;20040;-42
2023/06/28 05:58:29;;;;;;;18.75;9.70;;;;;;;14.81;100.00;101680.97;5053046;28;20036;-42
2023/06/28 06:00:55;;;;;;;16.15;9.95;;;;;;;14.90;100.00;101684.63;5053436;28;20408;-42
2023/06/28 06:03:20;;;;;;;15.50;8.73;;;;;;;15.00;100.00;101685.75;5053972;28;20024;-46
2023/06/28 06:05:46;;;;;;;16.33;9.13;;;;;;;15.02;100.00;101684.94;5052885;28;20413;-42
2023/06/28 06:08:12;;;;;;;16.90;9.50;;;;;;;15.12;100.00;101683.47;5053029;28;20040;-42
2023/06/28 06:10:37;;;;;;;20.02;10.05;;;;;;;15.19;100.00;101677.56;5053339;28;20060;-44
2023/06/28 06:13:03;;;;;;;22.23;9.68;;;;;;;15.21;100.00;101680.19;5052927;28;20017;-43
2023/06/28 06:15:28;;;;;;;15.27;9.05;;;;;;;15.22;100.00;101677.66;5053081;28;20051;-46
2023/06/28 06:17:54;;;;;;;16.55;9.48;;;;;;;15.23;100.00;101683.69;5053571;28;20025;-44
2023/06/28 06:20:19;;;;;;;15.80;8.93;;;;;;;15.22;100.00;101684.53;5052705;28;20078;-43
2023/06/28 06:22:44;;;;;;;16.55;9.68;;;;;;;15.18;100.00;101680.97;5052904;28;20049;-42
2023/06/28 06:25:10;;;;;;;16.65;9.50;;;;;;;15.17;100.00;101679.25;5053374;28;20163;-42
2023/06/28 06:27:36;;;;;;;15.27;10.20;;;;;;;15.19;100.00;101674.97;5052327;28;20052;-42
2023/06/28 06:30:02;;;;;;;18.60;9.60;;;;;;;15.22;100.00;101671.56;5036773;28;20492;-43
2023/06/28 06:32:28;;;;;;;19.85;10.20;;;;;;;15.36;100.00;101670.16;5047281;28;20037;-41
2023/06/28 06:34:57;;;;;;;16.85;9.30;;;;;;;15.41;100.00;101676.31;5035595;28;20045;-43
2023/06/28 06:37:23;;;;;;;18.10;9.60;;;;;;;15.46;100.00;101679.91;5050664;28;20036;-42
2023/06/28 06:39:49;;;;;;;15.55;8.25;;;;;;;15.48;100.00;101670.44;5052483;28;20032;-42
2023/06/28 06:42:15;;;;;;;19.25;8.45;;;;;;;15.45;100.00;101677.28;5052710;28;20029;-41
2023/06/28 06:44:40;;;;;;;15.32;8.73;;;;;;;15.44;100.00;101676.41;5052569;28;20051;-42
2023/06/28 06:47:06;;;;;;;15.80;9.25;;;;;;;15.42;100.00;101680.69;5052297;28;20091;-44
2023/06/28 06:49:32;;;;;;;16.67;9.27;;;;;;;15.44;100.00;101684.22;5052509;28;20028;-47
2023/06/28 06:51:58;;;;;;;19.98;10.60;;;;;;;15.43;100.00;101689.38;5053004;28;20052;-41
2023/06/28 06:54:24;;;;;;;14.80;9.77;;;;;;;15.44;100.00;101686.81;5052157;28;20387;-44
2023/06/28 06:56:50;;;;;;;17.52;10.57;;;;;;;15.50;100.00;101680.00;5052528;28;20107;-42
2023/06/28 06:59:19;;;;;;;16.08;9.73;;;;;;;15.44;100.00;101686.81;5052763;28;20073;-47
2023/06/28 07:01:45;;;;;;;20.73;10.15;;;;;;;15.47;100.00;101686.00;5052218;28;20107;-43
2023/06/28 07:04:10;;;;;;;15.35;9.75;;;;;;;15.52;100.00;101696.47;5052707;28;20056;-43
2023/06/28 07:06:36;;;;;;;13.75;9.75;;;;;;;15.55;100.00;101692.25;5052551;28;20101;-48
2023/06/28 07:09:01;;;;;;;15.10;10.40;;;;;;;15.54;100.00;101689.63;5052138;28;20025;-42
2023/06/28 07:11:27;;;;;;;18.60;10.50;;;;;;;15.59;100.00;101699.25;5052613;28;20457;-43
2023/06/28 07:13:52;;;;;;;16.60;10.15;;;;;;;15.64;100.00;101696.78;5052709;28;20439;-47
2023/06/28 07:16:17;;;;;;;16.85;10.27;;;;;;;15.68;100.00;101702.91;5052018;28;20059;-45
2023/06/28 07:18:43;;;;;;;18.42;10.32;;;;;;;15.70;100.00;101698.63;5052477;28;20028;-47
2023/06/28 07:21:08;;;;;;;16.27;9.75;;;;;;;15.70;100.00;101701.22;5056617;28;20048;-44
2023/06/28 07:23:33;;;;;;;16.58;10.10;;;;;;;15.72;100.00;101700.41;5055658;28;20077;-41
2023/06/28 07:25:59;;;;;;;18.23;10.00;;;;;;;15.78;100.00;101700.53;5056684;28;20025;-44
2023/06/28 07:28:24;;;;;;;22.23;10.80;;;;;;;15.75;100.00;101710.88;5056255;28;20025;-43
2023/06/28 07:30:54;;;;;;;15.00;9.77;;;;;;;15.78;100.00;101716.13;5055965;28;20029;-42
2023/06/28 07:33:23;;;;;;;18.80;10.95;;;;;;;15.82;100.00;101705.88;5056694;28;20028;-44
2023/06/28 07:35:51;;;;;;;18.35;10.80;;;;;;;15.82;100.00;101703.25;5056425;28;20032;-41
2023/06/28 07:38:18;;;;;;;18.27;10.77;;;;;;;15.85;100.00;101711.13;5055940;28;20033;-42
2023/06/28 07:40:47;;;;;;;22.10;12.05;;;;;;;15.85;100.00;101701.59;5056074;28;20017;-42
2023/06/28 07:43:13;;;;;;;16.80;10.75;;;;;;;15.91;100.00;101695.66;5056007;28;20112;-42
2023/06/28 07:45:40;;;;;;;15.65;10.50;;;;;;;15.99;100.00;101699.28;5056026;28;20033;-47
2023/06/28 07:48:05;;;;;;;15.90;10.27;;;;;;;16.07;100.00;101692.50;5056482;28;20021;-45
2023/06/28 07:50:31;;;;;;;18.05;10.25;;;;;;;16.19;100.00;101701.41;5055324;28;20032;-43
2023/06/28 07:52:56;;;;;;;23.35;10.60;;;;;;;16.30;100.00;101695.56;5056076;28;20025;-47
2023/06/28 07:55:21;;;;;;;17.55;9.65;;;;;;;16.31;100.00;101696.47;5055962;28;20086;-43
2023/06/28 07:57:47;;;;;;;17.98;9.68;;;;;;;16.34;100.00;101704.31;5055487;28;20384;-43
2023/06/28 08:00:13;;;;;;;17.48;9.73;;;;;;;16.35;100.00;101698.28;5056018;28;20052;-43
2023/06/28 08:02:38;;;;;;;17.02;8.80;;;;;;;16.36;100.00;101700.03;5055783;28;20036;-47
2023/06/28 08:05:04;;;;;;;13.73;7.57;;;;;;;16.37;100.00;101704.38;5055421;28;20025;-43
2023/06/28 08:07:29;;;;;;;13.27;7.47;;;;;;;16.33;100.00;101699.09;5055330;28;20029;-42
2023/06/28 08:09:55;;;;;;;15.93;7.28;;;;;;;16.32;100.00;101698.22;5056006;28;20036;-43
2023/06/28 08:12:20;;;;;;;11.80;7.00;;;;;;;16.27;100.00;101705.06;5055501;28;20027;-45
2023/06/28 08:14:45;;;;;;;13.27;6.82;;;;;;;16.29;100.00;101698.16;5055391;28;20029;-43
2023/06/28 08:17:11;;;;;;;16.00;7.10;;;;;;;16.41;100.00;101694.91;5055711;28;20033;-43
2023/06/28 08:19:36;;;;;;;15.73;7.05;;;;;;;16.56;100.00;101697.78;5054756;28;20468;-45
2023/06/28 08:22:03;;;;;;;16.38;7.32;;;;;;;16.61;100.00;101690.06;5055484;28;20052;-48
2023/06/28 08:24:29;;;;;;;13.87;7.20;;;;;;;16.63;100.00;101691.84;5055580;28;20037;-47
2023/06/28 08:26:54;;;;;;;13.82;7.57;;;;;;;16.69;100.00;101693.69;5055035;28;20403;-44
2023/06/28 08:29:20;;;;;;;14.07;7.55;;;;;;;16.70;100.00;101699.78;5055542;28;20379;-42
2023/06/28 08:31:45;;;;;;;14.23;6.60;;;;;;;16.76;100.00;101694.69;5054872;28;20032;-43
2023/06/28 08:34:11;;;;;;;14.82;7.03;;;;;;;16.83;100.00;101703.47;5054855;28;20029;-43
2023/06/28 08:36:36;;;;;;;13.13;6.85;;;;;;;16.95;100.00;101706.31;5055101;28;20033;-43
2023/06/28 08:39:02;;;;;;;13.52;6.80;;;;;;;16.96;99.69;101705.47;5055245;28;20029;-44
2023/06/28 08:41:27;;;;;;;14.75;7.15;;;;;;;16.96;99.43;101702.84;5054140;28;20032;-44
2023/06/28 08:43:55;;;;;;;14.68;7.28;;;;;;;16.98;98.37;101714.19;5055448;28;20029;-45
2023/06/28 08:46:22;;;;;;;11.82;6.70;;;;;;;16.99;98.67;101713.34;5054714;28;20025;-43
2023/06/28 08:48:48;;;;;;;12.33;6.33;;;;;;;17.02;97.68;101705.56;5054921;28;20021;-47
2023/06/28 08:51:17;;;;;;;13.65;6.75;;;;;;;17.13;96.19;101704.88;5055046;28;20020;-42
2023/06/28 08:53:46;;;;;;;12.75;6.78;;;;;;;17.18;97.90;101713.63;5054721;28;20029;-43
2023/06/28 08:56:12;;;;;;;12.38;6.85;;;;;;;17.17;96.93;101699.75;5054774;28;20491;-43
2023/06/28 08:58:37;;;;;;;13.10;6.60;;;;;;;17.42;96.36;101697.53;5054883;28;20033;-44
2023/06/28 09:01:03;;;;;;;13.85;6.30;;;;;;;17.34;94.88;101697.41;5054545;28;20111;-42
2023/06/28 09:03:30;;;;;;;14.45;6.47;;;;;;;17.43;95.09;101697.53;5054377;28;20021;-43
2023/06/28 09:05:56;;;;;;;13.13;6.82;;;;;;;17.49;93.12;101698.47;5054944;28;20025;-46
2023/06/28 09:08:22;;;;;;;13.82;6.60;;;;;;;17.46;92.77;101693.25;5054340;28;20021;-48
2023/06/28 09:10:49;;;;;;;16.83;6.28;;;;;;;17.54;94.59;101687.25;5054693;28;20049;-42
2023/06/28 09:13:19;;;;;;;16.90;7.20;;;;;;;17.68;94.96;101690.06;5054807;28;20111;-43
2023/06/28 09:15:46;;;;;;;15.82;6.00;;;;;;;17.87;93.43;101685.06;5053635;28;20465;-45
2023/06/28 09:18:12;;;;;;;12.73;6.68;;;;;;;17.97;91.26;101691.31;5054507;28;20059;-43
2023/06/28 09:20:37;;;;;;;15.30;6.15;;;;;;;18.00;91.24;101680.91;5054117;28;20048;-43
2023/06/28 09:23:04;;;;;;;15.65;6.60;;;;;;;17.94;90.29;101681.72;5054104;28;20083;-46
2023/06/28 09:25:31;;;;;;;17.13;6.68;;;;;;;17.92;90.58;101686.91;5054532;28;20103;-45
2023/06/28 09:27:57;;;;;;;;;;;;;;;18.15;92.09;101686.31;5054886;28;20067;-45
2023/06/28 09:30:23;;;;;;;16.23;7.55;;;;;;;18.07;92.46;101687.97;5053299;28;19952;-45
2023/06/28 09:32:52;;;;;;;13.57;6.18;;;;;;;18.07;92.07;101688.84;5054339;28;20027;-44
2023/06/28 09:35:18;;;;;;;15.85;6.13;;;;;;;18.13;93.02;101685.44;5054200;28;20163;-47
2023/06/28 09:37:47;;;;;;;14.98;6.35;;;;;;;18.10;90.66;101688.91;5052986;28;20082;-41
2023/06/28 09:40:16;;;;;;;14.13;6.07;;;;;;;18.10;91.13;101694.13;5054312;28;20048;-44
2023/06/28 09:42:44;;;;;;;19.13;6.68;;;;;;;18.22;90.59;101698.59;5052648;28;20351;-44
2023/06/28 09:45:10;;;;;;;13.00;6.15;;;;;;;18.39;88.95;101690.94;5053900;28;20086;-43
2023/06/28 09:47:36;;;;;;;15.48;7.03;;;;;;;18.49;89.11;101691.03;5053721;28;20155;-42
2023/06/28 09:50:02;;;;;;;18.58;6.47;;;;;;;18.84;88.58;101687.91;5053396;28;20528;-43
2023/06/28 09:52:34;;;;;;;15.10;5.68;;;;;;;19.07;87.44;101686.38;5053339;28;20388;-42
2023/06/28 09:55:00;;;;;;;18.23;6.18;;;;;;;19.13;84.23;101687.28;5053876;28;20445;-45
2023/06/28 09:57:26;;;;;;;11.07;6.43;;;;;;;19.28;83.97;101684.78;5052930;28;20029;-42
2023/06/28 09:59:54;;;;;;;18.23;5.63;;;;;;;19.41;81.09;101683.13;5053666;28;20021;-45
2023/06/28 10:02:23;;;;;;;13.15;6.22;;;;;;;19.42;80.88;101683.13;5053696;28;20025;-49
2023/06/28 10:04:51;;;;;;;16.10;5.93;;;;;;;19.46;80.15;101678.81;5052837;28;20393;-45
2023/06/28 10:07:19;;;;;;;12.23;5.25;;;;;;;19.62;81.20;101676.28;5053907;28;20025;-45
2023/06/28 10:09:45;;;;;;;14.75;5.25;;;;;;;19.92;78.98;101682.56;5053421;28;20025;-44
2023/06/28 10:12:21;;;;;;;11.80;4.70;;;;;;;20.37;79.31;101670.47;5052833;28;20119;-46
2023/06/28 10:14:58;;;;;;;14.82;5.57;;;;;;;20.49;76.21;101678.38;5053169;28;20484;-44
2023/06/28 10:17:24;;;;;;;;;;;;;;;20.90;76.40;101671.44;5053570;28;20029;-44
2023/06/28 10:19:50;;;;;;;13.17;5.23;;;;;;;20.73;70.08;101671.44;5052902;28;19920;-47
2023/06/28 10:22:15;;;;;;;11.02;4.95;;;;;;;20.65;71.06;101670.53;5053342;28;20291;-43
2023/06/28 10:24:42;;;;;;;12.13;5.40;;;;;;;20.52;71.61;101667.03;5053094;28;20024;-45
2023/06/28 10:27:08;;;;;;;14.35;5.60;;;;;;;20.58;73.33;101676.63;5053156;28;20550;-43
2023/06/28 10:29:35;;;;;;;12.50;4.72;;;;;;;20.79;72.25;101671.44;5052846;28;20060;-42
2023/06/28 10:32:02;;;;;;;12.55;4.63;;;;;;;20.98;72.25;101669.69;5052919;28;20032;-44
2023/06/28 10:34:28;;;;;;;13.82;5.63;;;;;;;21.00;69.25;101673.16;5052894;28;20032;-47
2023/06/28 10:36:56;;;;;;;13.25;5.10;;;;;;;21.22;69.10;101671.41;5053247;28;20052;-44
2023/06/28 10:39:21;;;;;;;17.42;5.38;;;;;;;21.48;68.63;101666.97;5052708;28;20017;-46
2023/06/28 10:41:54;;;;;;;15.30;4.88;;;;;;;21.68;69.11;101673.06;5052492;28;20025;-42
2023/06/28 10:44:20;;;;;;;11.48;5.00;;;;;;;21.77;69.63;101663.41;5053325;28;20017;-43
2023/06/28 10:46:45;;;;;;;13.18;4.78;;;;;;;21.83;63.99;101671.25;5052348;28;20017;-41
2023/06/28 10:49:11;;;;;;;12.05;4.32;;;;;;;21.82;66.15;101666.88;5052818;28;20029;-41
2023/06/28 10:51:36;;;;;;;10.07;4.43;;;;;;;21.88;64.25;101666.88;5052617;28;20025;-43
2023/06/28 10:54:15;;;;;;;12.27;4.25;;;;;;;22.51;66.29;101665.69;5051877;28;20100;-47
2023/06/28 10:56:48;;;;;;;9.90;4.78;;;;;;;22.23;63.08;101660.56;5052494;28;20037;-42
2023/06/28 10:59:14;;;;;;;11.45;4.80;;;;;;;22.29;63.42;101663.16;5052841;28;20533;-42
2023/06/28 11:01:48;;;;;;;10.05;4.40;;;;;;;22.93;63.77;101665.34;5051625;28;20104;-46
2023/06/28 11:04:18;;;;;;;12.27;4.68;;;;;;;22.84;63.68;101658.44;5052875;28;20111;-42
2023/06/28 11:06:44;;;;;;;14.52;5.18;;;;;;;23.43;59.64;101663.13;5052588;28;20025;-47